sensor_id;sensor_type;location;lat;lon;timestamp;pressure;altitude;pressure_sealevel;temperature
69552;BMP280;63774;45.292;11.784;2023-08-08T00:01:57;101892.41;;;24.10
69552;BMP280;63774;45.292;11.784;2023-08-08T00:04:23;101889.72;;;24.07
69552;BMP280;63774;45.292;11.784;2023-08-08T00:06:48;101893.02;;;24.03
69552;BMP280;63774;45.292;11.784;2023-08-08T00:09:14;101894.75;;;23.99
69552;BMP280;63774;45.292;11.784;2023-08-08T00:11:39;101900.77;;;23.96
69552;BMP280;63774;45.292;11.784;2023-08-08T00:14:04;101903.80;;;23.96
69552;BMP280;63774;45.292;11.784;2023-08-08T00:16:30;101901.27;;;23.91
69552;BMP280;63774;45.292;11.784;2023-08-08T00:18:55;101902.75;;;23.88
69552;BMP280;63774;45.292;11.784;2023-08-08T00:21:21;101901.95;;;23.88
69552;BMP280;63774;45.292;11.784;2023-08-08T00:23:46;101903.37;;;23.86
69552;BMP280;63774;45.292;11.784;2023-08-08T00:26:12;101908.09;;;23.86
69552;BMP280;63774;45.292;11.784;2023-08-08T00:28:37;101903.66;;;23.84
69552;BMP280;63774;45.292;11.784;2023-08-08T00:31:03;101899.11;;;23.78
69552;BMP280;63774;45.292;11.784;2023-08-08T00:33:28;101898.98;;;23.74
69552;BMP280;63774;45.292;11.784;2023-08-08T00:35:54;101899.92;;;23.73
69552;BMP280;63774;45.292;11.784;2023-08-08T00:38:19;101898.81;;;23.71
69552;BMP280;63774;45.292;11.784;2023-08-08T00:40:45;101896.65;;;23.68
69552;BMP280;63774;45.292;11.784;2023-08-08T00:43:10;101899.55;;;23.66
69552;BMP280;63774;45.292;11.784;2023-08-08T00:45:37;101903.95;;;23.64
69552;BMP280;63774;45.292;11.784;2023-08-08T00:48:03;101903.42;;;23.63
69552;BMP280;63774;45.292;11.784;2023-08-08T00:50:29;101903.75;;;23.60
69552;BMP280;63774;45.292;11.784;2023-08-08T00:52:54;101898.13;;;23.57
69552;BMP280;63774;45.292;11.784;2023-08-08T00:55:22;101895.02;;;23.57
69552;BMP280;63774;45.292;11.784;2023-08-08T00:57:48;101898.88;;;23.57
69552;BMP280;63774;45.292;11.784;2023-08-08T01:00:13;101902.71;;;23.52
69552;BMP280;63774;45.292;11.784;2023-08-08T01:02:39;101911.05;;;23.53
69552;BMP280;63774;45.292;11.784;2023-08-08T01:05:05;101912.45;;;23.47
69552;BMP280;63774;45.292;11.784;2023-08-08T01:10:15;101917.69;;;23.42
69552;BMP280;63774;45.292;11.784;2023-08-08T01:12:46;101917.27;;;23.40
69552;BMP280;63774;45.292;11.784;2023-08-08T01:15:13;101919.21;;;23.37
69552;BMP280;63774;45.292;11.784;2023-08-08T01:17:41;101916.14;;;23.37
69552;BMP280;63774;45.292;11.784;2023-08-08T01:20:08;101914.08;;;23.38
69552;BMP280;63774;45.292;11.784;2023-08-08T01:25:56;101912.23;;;23.35
69552;BMP280;63774;45.292;11.784;2023-08-08T01:28:24;101912.02;;;23.34
69552;BMP280;63774;45.292;11.784;2023-08-08T01:30:50;101910.89;;;23.32
69552;BMP280;63774;45.292;11.784;2023-08-08T01:33:16;101910.70;;;23.32
69552;BMP280;63774;45.292;11.784;2023-08-08T01:35:46;101912.34;;;23.30
69552;BMP280;63774;45.292;11.784;2023-08-08T01:38:23;101914.59;;;23.31
69552;BMP280;63774;45.292;11.784;2023-08-08T01:40:49;101916.77;;;23.31
69552;BMP280;63774;45.292;11.784;2023-08-08T01:43:15;101915.40;;;23.30
69552;BMP280;63774;45.292;11.784;2023-08-08T01:45:41;101912.15;;;23.29
69552;BMP280;63774;45.292;11.784;2023-08-08T01:48:08;101912.33;;;23.28
69552;BMP280;63774;45.292;11.784;2023-08-08T01:50:34;101910.73;;;23.26
69552;BMP280;63774;45.292;11.784;2023-08-08T01:52:59;101911.43;;;23.25
69552;BMP280;63774;45.292;11.784;2023-08-08T01:55:25;101911.45;;;23.25
69552;BMP280;63774;45.292;11.784;2023-08-08T01:57:50;101909.42;;;23.24
69552;BMP280;63774;45.292;11.784;2023-08-08T02:00:16;101903.96;;;23.25
69552;BMP280;63774;45.292;11.784;2023-08-08T02:02:41;101902.11;;;23.25
69552;BMP280;63774;45.292;11.784;2023-08-08T02:05:07;101902.77;;;23.24
69552;BMP280;63774;45.292;11.784;2023-08-08T02:07:32;101903.83;;;23.19
69552;BMP280;63774;45.292;11.784;2023-08-08T02:09:57;101903.65;;;23.18
69552;BMP280;63774;45.292;11.784;2023-08-08T02:12:23;101902.47;;;23.16
69552;BMP280;63774;45.292;11.784;2023-08-08T02:14:48;101904.81;;;23.16
69552;BMP280;63774;45.292;11.784;2023-08-08T02:17:13;101903.59;;;23.15
69552;BMP280;63774;45.292;11.784;2023-08-08T02:19:39;101904.23;;;23.12
69552;BMP280;63774;45.292;11.784;2023-08-08T02:22:04;101903.79;;;23.09
69552;BMP280;63774;45.292;11.784;2023-08-08T02:24:29;101904.31;;;23.09
69552;BMP280;63774;45.292;11.784;2023-08-08T02:26:55;101899.95;;;23.09
69552;BMP280;63774;45.292;11.784;2023-08-08T02:29:21;101901.73;;;23.08
69552;BMP280;63774;45.292;11.784;2023-08-08T02:31:46;101903.70;;;23.07
69552;BMP280;63774;45.292;11.784;2023-08-08T02:34:11;101901.41;;;23.07
69552;BMP280;63774;45.292;11.784;2023-08-08T02:36:37;101903.11;;;23.07
69552;BMP280;63774;45.292;11.784;2023-08-08T02:39:02;101909.06;;;23.06
69552;BMP280;63774;45.292;11.784;2023-08-08T02:41:28;101906.60;;;23.08
69552;BMP280;63774;45.292;11.784;2023-08-08T02:43:53;101908.69;;;23.09
69552;BMP280;63774;45.292;11.784;2023-08-08T02:46:19;101905.58;;;23.09
69552;BMP280;63774;45.292;11.784;2023-08-08T02:48:44;101908.13;;;23.10
69552;BMP280;63774;45.292;11.784;2023-08-08T02:51:10;101914.05;;;23.10
69552;BMP280;63774;45.292;11.784;2023-08-08T02:53:36;101915.37;;;23.07
69552;BMP280;63774;45.292;11.784;2023-08-08T02:56:01;101919.17;;;23.06
69552;BMP280;63774;45.292;11.784;2023-08-08T02:58:26;101922.71;;;23.08
69552;BMP280;63774;45.292;11.784;2023-08-08T03:00:52;101920.46;;;23.09
69552;BMP280;63774;45.292;11.784;2023-08-08T03:03:17;101922.30;;;23.05
69552;BMP280;63774;45.292;11.784;2023-08-08T03:05:44;101924.94;;;23.03
69552;BMP280;63774;45.292;11.784;2023-08-08T03:08:10;101926.85;;;23.03
69552;BMP280;63774;45.292;11.784;2023-08-08T03:10:36;101928.48;;;23.02
69552;BMP280;63774;45.292;11.784;2023-08-08T03:13:01;101928.89;;;23.01
69552;BMP280;63774;45.292;11.784;2023-08-08T03:15:27;101929.62;;;22.98
69552;BMP280;63774;45.292;11.784;2023-08-08T03:17:52;101933.23;;;22.97
69552;BMP280;63774;45.292;11.784;2023-08-08T03:20:17;101930.55;;;22.92
69552;BMP280;63774;45.292;11.784;2023-08-08T03:22:43;101932.23;;;22.89
69552;BMP280;63774;45.292;11.784;2023-08-08T03:25:08;101932.85;;;22.90
69552;BMP280;63774;45.292;11.784;2023-08-08T03:27:35;101934.86;;;22.90
69552;BMP280;63774;45.292;11.784;2023-08-08T03:30:02;101937.30;;;22.88
69552;BMP280;63774;45.292;11.784;2023-08-08T03:32:27;101941.04;;;22.84
69552;BMP280;63774;45.292;11.784;2023-08-08T03:34:53;101946.02;;;22.83
69552;BMP280;63774;45.292;11.784;2023-08-08T03:37:18;101949.52;;;22.82
69552;BMP280;63774;45.292;11.784;2023-08-08T03:39:44;101949.60;;;22.78
69552;BMP280;63774;45.292;11.784;2023-08-08T03:42:09;101954.77;;;22.79
69552;BMP280;63774;45.292;11.784;2023-08-08T03:44:35;101951.89;;;22.80
69552;BMP280;63774;45.292;11.784;2023-08-08T03:47:00;101949.39;;;22.79
69552;BMP280;63774;45.292;11.784;2023-08-08T03:49:26;101951.60;;;22.80
69552;BMP280;63774;45.292;11.784;2023-08-08T03:51:51;101952.23;;;22.78
69552;BMP280;63774;45.292;11.784;2023-08-08T03:54:17;101959.31;;;22.75
69552;BMP280;63774;45.292;11.784;2023-08-08T03:56:43;101958.96;;;22.76
69552;BMP280;63774;45.292;11.784;2023-08-08T03:59:09;101962.24;;;22.75
69552;BMP280;63774;45.292;11.784;2023-08-08T04:01:35;101966.31;;;22.76
69552;BMP280;63774;45.292;11.784;2023-08-08T04:04:01;101962.58;;;22.75
69552;BMP280;63774;45.292;11.784;2023-08-08T04:06:26;101961.87;;;22.76
69552;BMP280;63774;45.292;11.784;2023-08-08T04:08:51;101964.86;;;22.78
69552;BMP280;63774;45.292;11.784;2023-08-08T04:11:17;101960.55;;;22.78
69552;BMP280;63774;45.292;11.784;2023-08-08T04:13:42;101962.21;;;22.79
69552;BMP280;63774;45.292;11.784;2023-08-08T04:16:08;101963.86;;;22.80
69552;BMP280;63774;45.292;11.784;2023-08-08T04:18:33;101963.73;;;22.79
69552;BMP280;63774;45.292;11.784;2023-08-08T04:20:58;101961.69;;;22.80
69552;BMP280;63774;45.292;11.784;2023-08-08T04:23:24;101968.75;;;22.80
69552;BMP280;63774;45.292;11.784;2023-08-08T04:25:51;101977.66;;;22.81
69552;BMP280;63774;45.292;11.784;2023-08-08T04:28:17;101979.86;;;22.79
69552;BMP280;63774;45.292;11.784;2023-08-08T04:30:42;101975.23;;;22.79
69552;BMP280;63774;45.292;11.784;2023-08-08T04:33:08;101970.52;;;22.80
69552;BMP280;63774;45.292;11.784;2023-08-08T04:35:33;101967.73;;;22.78
69552;BMP280;63774;45.292;11.784;2023-08-08T04:37:59;101967.36;;;22.76
69552;BMP280;63774;45.292;11.784;2023-08-08T04:40:24;101967.62;;;22.74
69552;BMP280;63774;45.292;11.784;2023-08-08T04:42:50;101974.52;;;22.76
69552;BMP280;63774;45.292;11.784;2023-08-08T04:45:15;101977.61;;;22.79
69552;BMP280;63774;45.292;11.784;2023-08-08T04:47:41;101976.59;;;22.80
69552;BMP280;63774;45.292;11.784;2023-08-08T04:50:07;101972.38;;;22.83
69552;BMP280;63774;45.292;11.784;2023-08-08T04:52:32;101970.19;;;22.86
69552;BMP280;63774;45.292;11.784;2023-08-08T04:54:57;101968.89;;;22.89
69552;BMP280;63774;45.292;11.784;2023-08-08T04:57:23;101969.86;;;22.89
69552;BMP280;63774;45.292;11.784;2023-08-08T04:59:48;101971.25;;;22.89
69552;BMP280;63774;45.292;11.784;2023-08-08T05:02:14;101971.59;;;22.86
69552;BMP280;63774;45.292;11.784;2023-08-08T05:04:39;101975.86;;;22.88
69552;BMP280;63774;45.292;11.784;2023-08-08T05:07:05;101977.38;;;22.90
69552;BMP280;63774;45.292;11.784;2023-08-08T05:09:31;101980.38;;;22.90
69552;BMP280;63774;45.292;11.784;2023-08-08T05:11:57;101980.52;;;22.90
69552;BMP280;63774;45.292;11.784;2023-08-08T05:14:22;101980.58;;;22.93
69552;BMP280;63774;45.292;11.784;2023-08-08T05:16:47;101980.41;;;22.95
69552;BMP280;63774;45.292;11.784;2023-08-08T05:19:13;101983.97;;;22.96
69552;BMP280;63774;45.292;11.784;2023-08-08T05:21:38;101985.48;;;22.96
69552;BMP280;63774;45.292;11.784;2023-08-08T05:24:04;101988.17;;;22.97
69552;BMP280;63774;45.292;11.784;2023-08-08T05:26:29;101985.42;;;22.98
69552;BMP280;63774;45.292;11.784;2023-08-08T05:28:55;101986.50;;;23.00
69552;BMP280;63774;45.292;11.784;2023-08-08T05:31:20;101997.38;;;23.01
69552;BMP280;63774;45.292;11.784;2023-08-08T05:33:48;102005.32;;;23.01
69552;BMP280;63774;45.292;11.784;2023-08-08T05:36:13;102012.02;;;23.03
69552;BMP280;63774;45.292;11.784;2023-08-08T05:38:39;102017.27;;;23.04
69552;BMP280;63774;45.292;11.784;2023-08-08T05:41:04;102016.57;;;23.03
69552;BMP280;63774;45.292;11.784;2023-08-08T05:43:29;102017.48;;;23.04
69552;BMP280;63774;45.292;11.784;2023-08-08T05:45:55;102017.79;;;23.01
69552;BMP280;63774;45.292;11.784;2023-08-08T05:48:20;102023.39;;;23.01
69552;BMP280;63774;45.292;11.784;2023-08-08T05:50:46;102022.52;;;23.02
69552;BMP280;63774;45.292;11.784;2023-08-08T05:53:11;102024.24;;;23.02
69552;BMP280;63774;45.292;11.784;2023-08-08T05:55:37;102028.71;;;23.04
69552;BMP280;63774;45.292;11.784;2023-08-08T05:58:02;102031.90;;;23.04
69552;BMP280;63774;45.292;11.784;2023-08-08T06:00:27;102031.17;;;23.05
69552;BMP280;63774;45.292;11.784;2023-08-08T06:02:53;102025.82;;;23.05
69552;BMP280;63774;45.292;11.784;2023-08-08T06:05:21;102028.21;;;23.05
69552;BMP280;63774;45.292;11.784;2023-08-08T06:07:47;102039.00;;;23.07
69552;BMP280;63774;45.292;11.784;2023-08-08T06:10:12;102043.94;;;23.09
69552;BMP280;63774;45.292;11.784;2023-08-08T06:12:38;102038.41;;;23.08
69552;BMP280;63774;45.292;11.784;2023-08-08T06:15:03;102035.91;;;23.10
69552;BMP280;63774;45.292;11.784;2023-08-08T06:17:29;102042.02;;;23.10
69552;BMP280;63774;45.292;11.784;2023-08-08T06:19:54;102047.27;;;23.13
69552;BMP280;63774;45.292;11.784;2023-08-08T06:22:22;102047.90;;;23.14
69552;BMP280;63774;45.292;11.784;2023-08-08T06:24:47;102049.91;;;23.16
69552;BMP280;63774;45.292;11.784;2023-08-08T06:27:13;102051.41;;;23.17
69552;BMP280;63774;45.292;11.784;2023-08-08T06:29:39;102055.42;;;23.20
69552;BMP280;63774;45.292;11.784;2023-08-08T06:32:04;102052.39;;;23.21
69552;BMP280;63774;45.292;11.784;2023-08-08T06:34:29;102055.19;;;23.24
69552;BMP280;63774;45.292;11.784;2023-08-08T06:36:55;102061.15;;;23.28
69552;BMP280;63774;45.292;11.784;2023-08-08T06:39:20;102059.61;;;23.31
69552;BMP280;63774;45.292;11.784;2023-08-08T06:41:47;102054.18;;;23.34
69552;BMP280;63774;45.292;11.784;2023-08-08T06:44:12;102054.45;;;23.36
69552;BMP280;63774;45.292;11.784;2023-08-08T06:46:38;102057.05;;;23.40
69552;BMP280;63774;45.292;11.784;2023-08-08T06:49:03;102058.95;;;23.43
69552;BMP280;63774;45.292;11.784;2023-08-08T06:51:29;102061.52;;;23.45
69552;BMP280;63774;45.292;11.784;2023-08-08T06:53:55;102065.55;;;23.48
69552;BMP280;63774;45.292;11.784;2023-08-08T06:56:21;102063.83;;;23.53
69552;BMP280;63774;45.292;11.784;2023-08-08T06:58:46;102059.78;;;23.56
69552;BMP280;63774;45.292;11.784;2023-08-08T07:01:12;102058.43;;;23.60
69552;BMP280;63774;45.292;11.784;2023-08-08T07:03:38;102056.20;;;23.65
69552;BMP280;63774;45.292;11.784;2023-08-08T07:06:04;102062.95;;;23.68
69552;BMP280;63774;45.292;11.784;2023-08-08T07:08:29;102070.35;;;23.69
69552;BMP280;63774;45.292;11.784;2023-08-08T07:10:56;102064.14;;;23.73
69552;BMP280;63774;45.292;11.784;2023-08-08T07:13:22;102064.10;;;23.76
69552;BMP280;63774;45.292;11.784;2023-08-08T07:15:47;102064.58;;;23.80
69552;BMP280;63774;45.292;11.784;2023-08-08T07:18:13;102064.86;;;23.84
69552;BMP280;63774;45.292;11.784;2023-08-08T07:20:38;102071.13;;;23.88
69552;BMP280;63774;45.292;11.784;2023-08-08T07:23:04;102074.44;;;23.90
69552;BMP280;63774;45.292;11.784;2023-08-08T07:25:29;102073.47;;;23.94
69552;BMP280;63774;45.292;11.784;2023-08-08T07:27:55;102072.01;;;23.98
69552;BMP280;63774;45.292;11.784;2023-08-08T07:30:20;102070.14;;;24.00
69552;BMP280;63774;45.292;11.784;2023-08-08T07:32:46;102071.60;;;24.03
69552;BMP280;63774;45.292;11.784;2023-08-08T07:35:11;102065.95;;;24.05
69552;BMP280;63774;45.292;11.784;2023-08-08T07:37:37;102063.45;;;24.07
69552;BMP280;63774;45.292;11.784;2023-08-08T07:40:03;102058.88;;;24.10
69552;BMP280;63774;45.292;11.784;2023-08-08T07:42:38;102061.15;;;24.13
69552;BMP280;63774;45.292;11.784;2023-08-08T07:45:03;102063.08;;;24.15
69552;BMP280;63774;45.292;11.784;2023-08-08T07:47:29;102057.36;;;24.17
69552;BMP280;63774;45.292;11.784;2023-08-08T07:49:54;102056.56;;;24.20
69552;BMP280;63774;45.292;11.784;2023-08-08T07:52:20;102057.02;;;24.23
69552;BMP280;63774;45.292;11.784;2023-08-08T07:54:45;102062.30;;;24.25
69552;BMP280;63774;45.292;11.784;2023-08-08T07:57:10;102060.65;;;24.26
69552;BMP280;63774;45.292;11.784;2023-08-08T07:59:36;102061.15;;;24.28
69552;BMP280;63774;45.292;11.784;2023-08-08T08:02:01;102063.72;;;24.31
69552;BMP280;63774;45.292;11.784;2023-08-08T08:04:27;102058.17;;;24.30
69552;BMP280;63774;45.292;11.784;2023-08-08T08:06:52;102060.60;;;24.33
69552;BMP280;63774;45.292;11.784;2023-08-08T08:09:17;102057.08;;;24.34
69552;BMP280;63774;45.292;11.784;2023-08-08T08:11:43;102053.09;;;24.36
69552;BMP280;63774;45.292;11.784;2023-08-08T08:14:08;102055.13;;;24.37
69552;BMP280;63774;45.292;11.784;2023-08-08T08:16:33;102056.31;;;24.41
69552;BMP280;63774;45.292;11.784;2023-08-08T08:19:01;102053.40;;;24.44
69552;BMP280;63774;45.292;11.784;2023-08-08T08:21:26;102057.77;;;24.47
69552;BMP280;63774;45.292;11.784;2023-08-08T08:23:52;102061.89;;;24.49
69552;BMP280;63774;45.292;11.784;2023-08-08T08:26:17;102062.64;;;24.50
69552;BMP280;63774;45.292;11.784;2023-08-08T08:28:42;102060.66;;;24.52
69552;BMP280;63774;45.292;11.784;2023-08-08T08:31:08;102059.33;;;24.55
69552;BMP280;63774;45.292;11.784;2023-08-08T08:33:34;102059.02;;;24.57
69552;BMP280;63774;45.292;11.784;2023-08-08T08:35:59;102056.17;;;24.58
69552;BMP280;63774;45.292;11.784;2023-08-08T08:38:25;102063.35;;;24.61
69552;BMP280;63774;45.292;11.784;2023-08-08T08:40:54;102065.81;;;24.61
69552;BMP280;63774;45.292;11.784;2023-08-08T08:43:20;102067.91;;;24.63
69552;BMP280;63774;45.292;11.784;2023-08-08T08:45:53;102065.21;;;24.64
69552;BMP280;63774;45.292;11.784;2023-08-08T08:48:21;102063.31;;;24.64
69552;BMP280;63774;45.292;11.784;2023-08-08T08:50:48;102065.03;;;24.68
69552;BMP280;63774;45.292;11.784;2023-08-08T08:53:14;102062.52;;;24.70
69552;BMP280;63774;45.292;11.784;2023-08-08T08:55:41;102066.82;;;24.71
69552;BMP280;63774;45.292;11.784;2023-08-08T08:58:06;102063.09;;;24.72
69552;BMP280;63774;45.292;11.784;2023-08-08T09:00:32;102061.39;;;24.72
69552;BMP280;63774;45.292;11.784;2023-08-08T09:02:59;102057.13;;;24.74
69552;BMP280;63774;45.292;11.784;2023-08-08T09:05:25;102058.74;;;24.78
69552;BMP280;63774;45.292;11.784;2023-08-08T09:07:51;102058.92;;;24.79
69552;BMP280;63774;45.292;11.784;2023-08-08T09:10:18;102062.58;;;24.81
69552;BMP280;63774;45.292;11.784;2023-08-08T09:12:44;102064.42;;;24.83
69552;BMP280;63774;45.292;11.784;2023-08-08T09:15:11;102064.10;;;24.84
69552;BMP280;63774;45.292;11.784;2023-08-08T09:17:40;102063.97;;;24.86
69552;BMP280;63774;45.292;11.784;2023-08-08T09:20:07;102060.61;;;24.88
69552;BMP280;63774;45.292;11.784;2023-08-08T09:22:33;102060.24;;;24.89
69552;BMP280;63774;45.292;11.784;2023-08-08T09:24:58;102058.34;;;24.92
69552;BMP280;63774;45.292;11.784;2023-08-08T09:27:24;102059.73;;;24.94
69552;BMP280;63774;45.292;11.784;2023-08-08T09:29:49;102058.84;;;24.95
69552;BMP280;63774;45.292;11.784;2023-08-08T09:32:17;102060.27;;;24.98
69552;BMP280;63774;45.292;11.784;2023-08-08T09:34:43;102060.09;;;24.99
69552;BMP280;63774;45.292;11.784;2023-08-08T09:37:09;102060.05;;;25.00
69552;BMP280;63774;45.292;11.784;2023-08-08T09:39:36;102058.10;;;25.00
69552;BMP280;63774;45.292;11.784;2023-08-08T09:42:02;102054.20;;;25.01
69552;BMP280;63774;45.292;11.784;2023-08-08T09:44:29;102049.05;;;25.03
69552;BMP280;63774;45.292;11.784;2023-08-08T09:46:55;102048.93;;;25.06
69552;BMP280;63774;45.292;11.784;2023-08-08T09:49:21;102047.77;;;25.06
69552;BMP280;63774;45.292;11.784;2023-08-08T09:51:47;102050.52;;;25.07
69552;BMP280;63774;45.292;11.784;2023-08-08T09:54:14;102043.52;;;25.06
69552;BMP280;63774;45.292;11.784;2023-08-08T09:56:39;102040.80;;;25.07
69552;BMP280;63774;45.292;11.784;2023-08-08T09:59:06;102039.38;;;25.08
69552;BMP280;63774;45.292;11.784;2023-08-08T10:01:32;102036.94;;;25.10
69552;BMP280;63774;45.292;11.784;2023-08-08T10:03:58;102034.09;;;25.12
69552;BMP280;63774;45.292;11.784;2023-08-08T10:06:24;102033.41;;;25.12
69552;BMP280;63774;45.292;11.784;2023-08-08T10:08:50;102037.12;;;25.14
69552;BMP280;63774;45.292;11.784;2023-08-08T10:11:16;102037.69;;;25.15
69552;BMP280;63774;45.292;11.784;2023-08-08T10:13:53;102031.54;;;25.16
69552;BMP280;63774;45.292;11.784;2023-08-08T10:16:22;102028.23;;;25.19
69552;BMP280;63774;45.292;11.784;2023-08-08T10:19:02;102033.31;;;25.19
69552;BMP280;63774;45.292;11.784;2023-08-08T10:21:33;102034.70;;;25.23
69552;BMP280;63774;45.292;11.784;2023-08-08T10:24:06;102038.16;;;25.26
69552;BMP280;63774;45.292;11.784;2023-08-08T10:26:32;102038.16;;;25.27
69552;BMP280;63774;45.292;11.784;2023-08-08T10:28:59;102037.48;;;25.29
69552;BMP280;63774;45.292;11.784;2023-08-08T10:31:25;102034.13;;;25.30
69552;BMP280;63774;45.292;11.784;2023-08-08T10:34:01;102035.23;;;25.32
69552;BMP280;63774;45.292;11.784;2023-08-08T10:36:43;102033.91;;;25.34
69552;BMP280;63774;45.292;11.784;2023-08-08T10:39:14;102029.65;;;25.34
69552;BMP280;63774;45.292;11.784;2023-08-08T10:41:44;102027.09;;;25.34
69552;BMP280;63774;45.292;11.784;2023-08-08T10:44:10;102029.23;;;25.37
69552;BMP280;63774;45.292;11.784;2023-08-08T10:46:40;102028.18;;;25.39
69552;BMP280;63774;45.292;11.784;2023-08-08T10:49:06;102028.77;;;25.41
69552;BMP280;63774;45.292;11.784;2023-08-08T10:51:39;102028.33;;;25.42
69552;BMP280;63774;45.292;11.784;2023-08-08T10:54:24;102028.14;;;25.42
69552;BMP280;63774;45.292;11.784;2023-08-08T10:56:56;102025.75;;;25.42
69552;BMP280;63774;45.292;11.784;2023-08-08T10:59:26;102026.42;;;25.43
69552;BMP280;63774;45.292;11.784;2023-08-08T11:01:53;102026.13;;;25.43
69552;BMP280;63774;45.292;11.784;2023-08-08T11:04:20;102024.10;;;25.44
69552;BMP280;63774;45.292;11.784;2023-08-08T11:06:47;102019.85;;;25.45
69552;BMP280;63774;45.292;11.784;2023-08-08T11:09:13;102018.35;;;25.46
69552;BMP280;63774;45.292;11.784;2023-08-08T11:11:40;102017.35;;;25.47
69552;BMP280;63774;45.292;11.784;2023-08-08T11:14:17;102009.70;;;25.49
69552;BMP280;63774;45.292;11.784;2023-08-08T11:16:44;102009.76;;;25.50
69552;BMP280;63774;45.292;11.784;2023-08-08T11:19:11;102010.85;;;25.50
69552;BMP280;63774;45.292;11.784;2023-08-08T11:21:41;102010.41;;;25.52
69552;BMP280;63774;45.292;11.784;2023-08-08T11:24:08;102004.32;;;25.54
69552;BMP280;63774;45.292;11.784;2023-08-08T11:26:34;102000.73;;;25.55
69552;BMP280;63774;45.292;11.784;2023-08-08T11:29:02;101997.05;;;25.58
69552;BMP280;63774;45.292;11.784;2023-08-08T11:31:28;101996.78;;;25.57
69552;BMP280;63774;45.292;11.784;2023-08-08T11:33:55;101992.55;;;25.59
69552;BMP280;63774;45.292;11.784;2023-08-08T11:36:22;101989.88;;;25.61
69552;BMP280;63774;45.292;11.784;2023-08-08T11:38:49;101988.22;;;25.62
69552;BMP280;63774;45.292;11.784;2023-08-08T11:41:17;101984.95;;;25.62
69552;BMP280;63774;45.292;11.784;2023-08-08T11:43:44;101982.42;;;25.62
69552;BMP280;63774;45.292;11.784;2023-08-08T11:46:12;101974.06;;;25.63
69552;BMP280;63774;45.292;11.784;2023-08-08T11:48:38;101966.80;;;25.63
69552;BMP280;63774;45.292;11.784;2023-08-08T11:51:04;101963.45;;;25.65
69552;BMP280;63774;45.292;11.784;2023-08-08T11:53:30;101960.90;;;25.65
69552;BMP280;63774;45.292;11.784;2023-08-08T11:55:55;101958.09;;;25.64
69552;BMP280;63774;45.292;11.784;2023-08-08T11:58:24;101957.48;;;25.65
69552;BMP280;63774;45.292;11.784;2023-08-08T12:00:51;101952.17;;;25.64
69552;BMP280;63774;45.292;11.784;2023-08-08T12:03:18;101952.41;;;25.65
69552;BMP280;63774;45.292;11.784;2023-08-08T12:05:47;101949.26;;;25.66
69552;BMP280;63774;45.292;11.784;2023-08-08T12:08:13;101946.03;;;25.66
69552;BMP280;63774;45.292;11.784;2023-08-08T12:10:47;101944.77;;;25.66
69552;BMP280;63774;45.292;11.784;2023-08-08T12:13:12;101944.89;;;25.67
69552;BMP280;63774;45.292;11.784;2023-08-08T12:15:38;101941.85;;;25.66
69552;BMP280;63774;45.292;11.784;2023-08-08T12:18:03;101944.04;;;25.67
69552;BMP280;63774;45.292;11.784;2023-08-08T12:20:29;101943.84;;;25.68
69552;BMP280;63774;45.292;11.784;2023-08-08T12:22:56;101944.52;;;25.68
69552;BMP280;63774;45.292;11.784;2023-08-08T12:25:21;101941.73;;;25.70
69552;BMP280;63774;45.292;11.784;2023-08-08T12:27:47;101939.48;;;25.70
69552;BMP280;63774;45.292;11.784;2023-08-08T12:30:13;101941.06;;;25.70
69552;BMP280;63774;45.292;11.784;2023-08-08T12:32:38;101937.56;;;25.71
69552;BMP280;63774;45.292;11.784;2023-08-08T12:35:04;101929.73;;;25.72
69552;BMP280;63774;45.292;11.784;2023-08-08T12:37:31;101925.19;;;25.73
69552;BMP280;63774;45.292;11.784;2023-08-08T12:39:57;101924.39;;;25.74
69552;BMP280;63774;45.292;11.784;2023-08-08T12:42:23;101923.55;;;25.74
69552;BMP280;63774;45.292;11.784;2023-08-08T12:44:48;101922.09;;;25.75
69552;BMP280;63774;45.292;11.784;2023-08-08T12:47:16;101923.53;;;25.76
69552;BMP280;63774;45.292;11.784;2023-08-08T12:49:42;101918.77;;;25.77
69552;BMP280;63774;45.292;11.784;2023-08-08T12:52:07;101919.73;;;25.78
69552;BMP280;63774;45.292;11.784;2023-08-08T12:54:33;101919.99;;;25.78
69552;BMP280;63774;45.292;11.784;2023-08-08T12:56:58;101917.41;;;25.77
69552;BMP280;63774;45.292;11.784;2023-08-08T12:59:24;101914.69;;;25.77
69552;BMP280;63774;45.292;11.784;2023-08-08T13:01:49;101913.33;;;25.78
69552;BMP280;63774;45.292;11.784;2023-08-08T13:04:14;101913.41;;;25.79
69552;BMP280;63774;45.292;11.784;2023-08-08T13:06:40;101911.07;;;25.81
69552;BMP280;63774;45.292;11.784;2023-08-08T13:09:05;101909.68;;;25.82
69552;BMP280;63774;45.292;11.784;2023-08-08T13:11:30;101909.09;;;25.82
69552;BMP280;63774;45.292;11.784;2023-08-08T13:13:56;101909.55;;;25.84
69552;BMP280;63774;45.292;11.784;2023-08-08T13:16:21;101909.77;;;25.85
69552;BMP280;63774;45.292;11.784;2023-08-08T13:18:47;101906.16;;;25.85
69552;BMP280;63774;45.292;11.784;2023-08-08T13:21:12;101909.68;;;25.88
69552;BMP280;63774;45.292;11.784;2023-08-08T13:23:40;101909.81;;;25.88
69552;BMP280;63774;45.292;11.784;2023-08-08T13:26:05;101910.52;;;25.89
69552;BMP280;63774;45.292;11.784;2023-08-08T13:28:30;101906.91;;;25.89
69552;BMP280;63774;45.292;11.784;2023-08-08T13:30:56;101903.54;;;25.90
69552;BMP280;63774;45.292;11.784;2023-08-08T13:33:22;101902.02;;;25.91
69552;BMP280;63774;45.292;11.784;2023-08-08T13:35:47;101901.68;;;25.90
69552;BMP280;63774;45.292;11.784;2023-08-08T13:38:12;101899.63;;;25.92
69552;BMP280;63774;45.292;11.784;2023-08-08T13:40:43;101894.16;;;25.93
69552;BMP280;63774;45.292;11.784;2023-08-08T13:43:08;101891.55;;;25.92
69552;BMP280;63774;45.292;11.784;2023-08-08T13:45:34;101891.19;;;25.93